Skip Navigation Links
NOAA logo - Click to go to the NOAA homepage
NOAA's National Weather Service
Alaska Aviation Weather Unit
  NWS logo - Click to go to the NWS homepage
Left Navbar Graphic     10 AKDT = 18 GMT

   
NOAA is celebrating 200 years of science, service, and stewardship. Visit the NOAA 200th celebration Web site to learn more.
USA.gov is the U.S. Government's official Web portal to all Federal, state and local government Web resources and services.
Facebook
NWS on Facebook

Important Change Regarding the AAWU Web Presence

 

Over the last several months, the AAWU has been working to navigate its webpages to a nationally supported server. Security, as well as other needs, have necessitated the change.  We have been given an extension for the site changeover while we diligently work at addressing feedback received. As of July 14, 2017, aawu.arh.noaa.gov will be discontinued. The new AAWU web address is weather.gov/aawu. It is now live and will run in-parallel with the old site until it is discontinued on July 14, 2017. Please continue to send any feedback or questions regarding the new webpages to nws.ar.aawu.webauthors@noaa.gov.  Thank you for your patience during this time of transition.
AAWU Home :: Display TAF Add Bookmark
METAR PASH 261256Z AUTO 03011KT 10SM SCT026 03/M02 A3011 RMK AO2 SLP199
     T00331017=

METAR PASH 261456Z AUTO 36010KT 10SM CLR 03/M02 A3011 RMK AO2 SLP196
 T00331017 58003=

METAR PASH 261556Z AUTO 01009KT 10SM CLR 03/M02 A3011 RMK AO2 SLP197
     T00331017=

METAR PASH 261656Z AUTO 03007KT 10SM SCT024 03/M02 A3011 RMK AO2 SLP196
     T00281017=

METAR PASH 261756Z AUTO 04006KT 10SM CLR 03/M02 A3010 RMK AO2 SLP194
 T00281017 10033 20028 58002=


NOAA's National Weather Service
Alaska Aviation Weather Unit
6930 Sand Lake Road
Anchorage, AK 99502-1845
Disclaimer
Credits
Glossary
Privacy Policy
About Us
Career Opportunities
Contact AAWU Internet Services Site last modified: April, 17th 2012